Time;durP1;ratioP1;P1;durP2;ratioP2;P2;SDS_P1;SDS_P2;PMS_P1;PMS_P2;Temp;Humidity;BMP_temperature;BMP_pressure;BME280_temperature;BME280_humidity;BME280_pressure;Samples;Min_cycle;Max_cycle;Signal;HPM_P1;HPM_P2
2021/11/23 00:01:54;;;;;;;12.07;8.02;;;;;;;0.92;100.00;103025.75;5246096;28;20440;-71
2021/11/23 00:04:25;;;;;;;11.23;7.03;;;;;;;0.97;100.00;103022.22;5246251;28;20103;-71
2021/11/23 00:06:56;;;;;;;10.38;6.88;;;;;;;0.96;100.00;103022.25;5246838;28;20535;-70
2021/11/23 00:09:28;;;;;;;12.23;7.88;;;;;;;0.95;100.00;103012.81;5246779;28;20119;-71
2021/11/23 00:11:59;;;;;;;12.90;8.90;;;;;;;0.95;100.00;103015.38;5245672;28;20044;-71
2021/11/23 00:14:30;;;;;;;12.50;7.47;;;;;;;0.95;100.00;103018.81;5245537;28;20055;-71
2021/11/23 00:17:02;;;;;;;11.13;7.70;;;;;;;0.95;100.00;103023.13;5246040;28;20082;-71
2021/11/23 00:19:33;;;;;;;16.08;8.90;;;;;;;0.95;100.00;103017.97;5245587;28;20041;-71
2021/11/23 00:22:05;;;;;;;13.65;8.02;;;;;;;1.00;100.00;103020.50;5246015;28;20040;-71
2021/11/23 00:24:37;;;;;;;12.25;8.38;;;;;;;1.00;100.00;103011.03;5247170;28;20094;-70
2021/11/23 00:27:09;;;;;;;13.68;7.80;;;;;;;0.95;100.00;103007.66;5233448;28;20105;-71
2021/11/23 00:29:40;;;;;;;12.07;8.45;;;;;;;1.00;100.00;103016.19;5244981;28;20897;-71
2021/11/23 00:32:11;;;;;;;11.73;8.65;;;;;;;1.02;100.00;103013.56;5246565;28;20044;-71
2021/11/23 00:34:43;;;;;;;12.50;8.05;;;;;;;1.02;100.00;103013.56;5246795;28;20025;-71
2021/11/23 00:37:16;;;;;;;12.48;8.38;;;;;;;1.08;100.00;103008.38;5245563;28;20066;-70
2021/11/23 00:39:47;;;;;;;12.45;8.85;;;;;;;1.01;100.00;103006.72;5245050;28;20045;-71
2021/11/23 00:42:18;;;;;;;11.10;8.82;;;;;;;1.07;100.00;103001.50;5245732;28;20068;-70
2021/11/23 00:44:50;;;;;;;14.85;8.65;;;;;;;1.03;100.00;103007.56;5246631;28;20032;-71
2021/11/23 00:47:21;;;;;;;13.15;9.85;;;;;;;1.02;100.00;103004.09;5245806;28;20397;-71
2021/11/23 00:49:53;;;;;;;12.90;9.68;;;;;;;0.97;100.00;103001.56;5245588;28;20040;-71
2021/11/23 00:52:24;;;;;;;14.77;9.55;;;;;;;1.04;100.00;103006.69;5245971;28;20064;-71
2021/11/23 00:54:55;;;;;;;13.98;8.50;;;;;;;0.99;100.00;103009.31;5244542;28;20626;-71
2021/11/23 00:57:27;;;;;;;13.27;8.73;;;;;;;0.99;100.00;103008.47;5246171;28;20642;-71
2021/11/23 00:59:58;;;;;;;13.18;8.20;;;;;;;0.97;100.00;103008.47;5244969;28;20041;-71
2021/11/23 01:02:29;;;;;;;12.52;8.88;;;;;;;0.92;100.00;103008.53;5244614;28;20505;-70
2021/11/23 01:05:02;;;;;;;21.77;9.18;;;;;;;0.89;100.00;102999.94;5244886;28;20032;-71
2021/11/23 01:07:34;;;;;;;11.52;9.15;;;;;;;0.84;100.00;103000.00;5245949;28;20843;-71
2021/11/23 01:10:07;;;;;;;13.68;9.63;;;;;;;0.84;100.00;102997.41;5245220;28;20051;-71
2021/11/23 01:12:39;;;;;;;;;;;;;;;1.31;100.00;102997.78;5246144;28;20118;-71
2021/11/23 01:15:11;;;;;;;14.45;9.68;;;;;;;0.82;100.00;103001.72;5245291;28;19920;-70
2021/11/23 01:17:42;;;;;;;12.05;9.13;;;;;;;0.80;100.00;102998.31;5245331;28;20636;-71
2021/11/23 01:20:13;;;;;;;14.98;9.85;;;;;;;0.83;100.00;103003.44;5245307;28;20536;-71
2021/11/23 01:22:45;;;;;;;16.05;9.30;;;;;;;0.81;100.00;103005.19;5245490;28;20040;-70
2021/11/23 01:25:16;;;;;;;14.52;9.50;;;;;;;0.82;100.00;103003.47;5244330;28;20040;-71
2021/11/23 01:27:48;;;;;;;15.15;9.93;;;;;;;0.77;100.00;103000.06;5243940;28;20709;-71
2021/11/23 01:30:20;;;;;;;14.13;9.18;;;;;;;0.72;100.00;102989.81;5248347;28;20024;-70
2021/11/23 01:32:51;;;;;;;14.50;9.40;;;;;;;0.73;100.00;102994.94;5245157;28;20075;-71
2021/11/23 01:35:23;;;;;;;12.80;8.88;;;;;;;0.72;100.00;102993.22;5245161;28;20044;-70
2021/11/23 01:37:54;;;;;;;12.13;8.57;;;;;;;0.75;100.00;102994.06;5245769;28;20051;-71
2021/11/23 01:40:25;;;;;;;12.07;8.52;;;;;;;0.76;100.00;102991.47;5245242;28;20497;-71
2021/11/23 01:42:57;;;;;;;12.05;8.20;;;;;;;0.76;100.00;102975.13;5245191;28;20076;-70
2021/11/23 01:45:28;;;;;;;11.60;8.60;;;;;;;0.71;100.00;102968.28;5245117;28;20494;-71
2021/11/23 01:47:59;;;;;;;12.40;8.85;;;;;;;0.82;100.00;102981.09;5243092;28;20043;-70
2021/11/23 01:50:31;;;;;;;15.27;8.27;;;;;;;0.86;100.00;102979.34;5245072;28;20051;-71
2021/11/23 01:53:04;;;;;;;13.10;7.78;;;;;;;0.91;100.00;102974.97;5244466;28;20033;-70
2021/11/23 01:55:40;;;;;;;13.95;8.50;;;;;;;0.95;100.00;102974.94;5244167;28;20032;-71
2021/11/23 01:58:13;;;;;;;10.60;7.65;;;;;;;0.90;100.00;102961.22;5244237;28;20530;-71
2021/11/23 02:00:45;;;;;;;11.65;7.28;;;;;;;0.99;100.00;102969.75;5243533;28;20237;-71
2021/11/23 02:03:17;;;;;;;11.60;8.35;;;;;;;0.93;100.00;102974.09;5244517;28;20498;-70
2021/11/23 02:05:48;;;;;;;12.60;7.35;;;;;;;0.97;100.00;102980.09;5244542;28;20040;-71
2021/11/23 02:08:20;;;;;;;11.02;7.75;;;;;;;1.02;100.00;102978.28;5245362;28;20290;-71
2021/11/23 02:10:51;;;;;;;9.93;6.78;;;;;;;0.97;100.00;102962.00;5243459;28;20063;-71
2021/11/23 02:13:23;;;;;;;10.05;7.07;;;;;;;1.13;100.00;102983.34;5243985;28;20571;-71
2021/11/23 02:15:56;;;;;;;10.05;7.22;;;;;;;1.16;100.00;102981.59;5244807;28;20033;-71
2021/11/23 02:18:29;;;;;;;;;;;;;;;1.63;100.00;102984.47;5245376;28;20413;-71
2021/11/23 02:21:00;;;;;;;9.93;6.95;;;;;;;1.27;100.00;102983.19;5245052;28;19925;-71
2021/11/23 02:23:32;;;;;;;11.13;6.07;;;;;;;1.31;100.00;102988.31;5244594;28;20378;-71
2021/11/23 02:26:04;;;;;;;10.52;6.80;;;;;;;1.31;100.00;102980.56;5244688;28;20032;-71
2021/11/23 02:28:35;;;;;;;11.32;6.70;;;;;;;1.35;100.00;102987.41;5243233;28;20568;-71
2021/11/23 02:31:08;;;;;;;11.02;6.85;;;;;;;1.42;100.00;102983.03;5244477;28;20040;-70
2021/11/23 02:33:39;;;;;;;7.93;6.60;;;;;;;1.47;100.00;102981.22;5244151;28;20047;-71
2021/11/23 02:36:11;;;;;;;11.45;7.25;;;;;;;1.50;100.00;102978.59;5244686;28;20032;-71
2021/11/23 02:38:42;;;;;;;11.68;6.55;;;;;;;1.53;100.00;102976.00;5245025;28;20565;-71
2021/11/23 02:41:14;;;;;;;12.90;6.50;;;;;;;1.54;100.00;102975.09;5248487;28;20025;-71
2021/11/23 02:43:47;;;;;;;10.05;6.10;;;;;;;1.61;100.00;102974.16;5248191;28;20131;-71
2021/11/23 02:46:19;;;;;;;8.50;6.07;;;;;;;1.59;100.00;102975.03;5247889;28;20075;-70
2021/11/23 02:48:50;;;;;;;9.88;6.45;;;;;;;1.60;100.00;102966.44;5247536;28;20640;-71
2021/11/23 02:51:22;;;;;;;10.35;6.45;;;;;;;1.61;100.00;102963.81;5248601;28;20671;-70
2021/11/23 02:53:54;;;;;;;10.35;6.25;;;;;;;1.63;100.00;102969.84;5248743;28;20110;-71
2021/11/23 02:56:25;;;;;;;9.38;6.15;;;;;;;1.64;100.00;102968.97;5246851;28;20068;-71
2021/11/23 02:58:57;;;;;;;8.57;5.80;;;;;;;1.72;100.00;102980.91;5247281;28;20088;-70
2021/11/23 03:01:28;;;;;;;10.18;6.20;;;;;;;1.69;100.00;102961.13;5244358;28;20179;-70
2021/11/23 03:03:59;;;;;;;11.57;6.00;;;;;;;1.80;100.00;102973.91;5248583;28;20036;-71
2021/11/23 03:06:31;;;;;;;8.52;5.93;;;;;;;1.82;100.00;102969.56;5247901;28;20063;-70
2021/11/23 03:09:02;;;;;;;9.07;6.15;;;;;;;1.82;100.00;102967.84;5244387;28;20033;-71
2021/11/23 03:11:33;;;;;;;10.07;5.63;;;;;;;1.86;100.00;102963.50;5246623;28;20056;-70
2021/11/23 03:14:05;;;;;;;11.77;6.75;;;;;;;1.78;100.00;102952.38;5246990;28;20048;-70
2021/11/23 03:16:36;;;;;;;10.40;6.38;;;;;;;1.84;100.00;102957.47;5245722;28;20040;-70
2021/11/23 03:19:07;;;;;;;12.25;6.25;;;;;;;1.86;100.00;102953.16;5246949;28;20514;-70
2021/11/23 03:21:39;;;;;;;9.77;5.60;;;;;;;1.86;100.00;102953.16;5248088;28;20037;-71
2021/11/23 03:24:10;;;;;;;8.18;6.13;;;;;;;1.87;100.00;102949.69;5246258;28;20508;-70
2021/11/23 03:26:42;;;;;;;11.98;6.75;;;;;;;1.85;100.00;102948.84;5247598;28;20440;-70
2021/11/23 03:29:13;;;;;;;10.73;6.07;;;;;;;1.87;100.00;102947.97;5247223;28;20024;-70
2021/11/23 03:31:45;;;;;;;10.38;6.32;;;;;;;1.87;100.00;102939.34;5247723;28;20034;-70
2021/11/23 03:34:16;;;;;;;12.30;6.72;;;;;;;1.92;100.00;102942.72;5245951;28;20402;-71
2021/11/23 03:36:48;;;;;;;14.82;7.03;;;;;;;1.90;100.00;102944.50;5246673;28;20102;-70
2021/11/23 03:39:19;;;;;;;12.65;7.30;;;;;;;1.94;100.00;102944.41;5247969;28;20028;-70
2021/11/23 03:41:50;;;;;;;12.70;7.15;;;;;;;1.98;100.00;102946.94;5246179;28;20036;-71
2021/11/23 03:44:22;;;;;;;13.52;6.85;;;;;;;1.99;100.00;102954.69;5246958;28;20063;-70
2021/11/23 03:46:53;;;;;;;12.88;6.45;;;;;;;2.02;100.00;102949.47;5247320;28;20021;-70
2021/11/23 03:49:26;;;;;;;10.90;6.97;;;;;;;2.06;100.00;102947.69;5247734;28;20048;-71
2021/11/23 03:51:57;;;;;;;11.65;6.50;;;;;;;2.07;100.00;102946.81;5246148;28;20031;-71
2021/11/23 03:54:29;;;;;;;11.60;6.57;;;;;;;2.10;100.00;102950.19;5247282;28;20032;-71
2021/11/23 03:57:00;;;;;;;11.27;7.18;;;;;;;2.12;100.00;102953.63;5246431;28;20036;-71
2021/11/23 03:59:32;;;;;;;14.35;7.45;;;;;;;2.15;100.00;102950.97;5247392;28;20047;-71
2021/11/23 04:02:04;;;;;;;10.90;7.00;;;;;;;2.16;100.00;102960.47;5245471;28;20094;-71
2021/11/23 04:04:35;;;;;;;13.63;7.82;;;;;;;2.19;100.00;102957.78;5246278;28;20109;-71
2021/11/23 04:07:06;;;;;;;14.82;7.72;;;;;;;2.22;100.00;102958.63;5246835;28;20287;-71
2021/11/23 04:09:38;;;;;;;11.48;7.78;;;;;;;2.21;100.00;102960.38;5246869;28;20031;-71
2021/11/23 04:12:10;;;;;;;14.23;8.50;;;;;;;2.26;100.00;102960.28;5246074;28;20106;-70
2021/11/23 04:14:43;;;;;;;12.57;8.30;;;;;;;2.24;100.00;102957.75;5245834;28;20558;-71
2021/11/23 04:17:14;;;;;;;13.35;8.52;;;;;;;2.27;100.00;102949.91;5244999;28;20028;-71
2021/11/23 04:19:45;;;;;;;13.80;8.57;;;;;;;2.31;100.00;102951.59;5245686;28;20076;-71
2021/11/23 04:22:16;;;;;;;14.45;8.25;;;;;;;2.34;100.00;102946.34;5245802;28;20028;-70
2021/11/23 04:24:48;;;;;;;12.10;8.18;;;;;;;2.37;100.00;102943.72;5246563;28;20039;-70
2021/11/23 04:27:19;;;;;;;27.58;9.60;;;;;;;2.40;100.00;102945.41;5245419;28;20355;-70
2021/11/23 04:29:51;;;;;;;12.68;8.68;;;;;;;2.39;100.00;102939.38;5245653;28;20021;-70
2021/11/23 04:32:22;;;;;;;13.98;8.50;;;;;;;2.44;100.00;102934.13;5246139;28;20378;-70
2021/11/23 04:34:53;;;;;;;13.57;8.82;;;;;;;2.47;100.00;102933.22;5245924;28;20032;-70
2021/11/23 04:37:24;;;;;;;15.95;8.88;;;;;;;2.50;100.00;102934.03;5246261;28;20602;-70
2021/11/23 04:39:56;;;;;;;17.08;8.30;;;;;;;2.57;100.00;102937.34;5245634;28;20143;-70
2021/11/23 04:42:27;;;;;;;13.45;8.48;;;;;;;2.58;100.00;102933.91;5245742;28;20038;-70
2021/11/23 04:44:58;;;;;;;17.88;8.65;;;;;;;2.64;100.00;102934.63;5245944;28;20103;-70
2021/11/23 04:47:30;;;;;;;17.25;8.82;;;;;;;2.67;100.00;102941.47;5244861;28;20036;-70
2021/11/23 04:50:04;;;;;;;14.30;8.60;;;;;;;2.72;100.00;102943.97;5245022;28;20036;-70
2021/11/23 04:52:36;;;;;;;15.63;8.27;;;;;;;2.70;100.00;102938.84;5246309;28;20060;-70
2021/11/23 04:55:08;;;;;;;11.68;7.75;;;;;;;2.76;100.00;102936.13;5246305;28;20107;-70
2021/11/23 04:57:40;;;;;;;15.50;8.03;;;;;;;2.82;100.00;102945.53;5245558;28;20438;-70
2021/11/23 05:00:15;;;;;;;14.23;7.75;;;;;;;2.82;100.00;102937.75;5244853;28;20032;-70
2021/11/23 05:02:47;;;;;;;11.65;7.68;;;;;;;2.86;100.00;102947.19;5244151;28;20060;-70
2021/11/23 05:05:19;;;;;;;12.13;8.02;;;;;;;2.91;100.00;102945.34;5244731;28;20506;-70
2021/11/23 05:07:51;;;;;;;12.55;8.10;;;;;;;2.91;100.00;102933.25;5244304;28;20679;-70
2021/11/23 05:10:22;;;;;;;13.52;7.95;;;;;;;2.99;100.00;102929.66;5245871;28;20031;-70
2021/11/23 05:12:53;;;;;;;13.95;8.88;;;;;;;2.99;100.00;102935.69;5245049;28;20525;-70
2021/11/23 05:15:25;;;;;;;16.08;9.02;;;;;;;3.04;100.00;102923.53;5244243;28;20052;-70
2021/11/23 05:17:56;;;;;;;13.75;8.65;;;;;;;3.07;100.00;102935.53;5245318;28;20036;-70
2021/11/23 05:20:28;;;;;;;12.10;7.65;;;;;;;3.07;100.00;102930.34;5245175;28;20796;-70
2021/11/23 05:22:59;;;;;;;14.25;8.23;;;;;;;3.05;100.00;102933.00;5247890;28;20129;-70
2021/11/23 05:25:30;;;;;;;13.90;7.68;;;;;;;3.06;100.00;102929.50;5245383;28;20100;-70
2021/11/23 05:28:02;;;;;;;15.80;8.32;;;;;;;3.10;100.00;102935.47;5244572;28;20036;-70
2021/11/23 05:30:33;;;;;;;12.63;7.85;;;;;;;3.11;100.00;102934.63;5243489;28;20044;-70
2021/11/23 05:33:05;;;;;;;13.38;8.35;;;;;;;3.15;100.00;102931.09;5242519;28;20032;-70
2021/11/23 05:35:37;;;;;;;12.98;7.97;;;;;;;3.17;100.00;102934.47;5245059;28;20488;-70
2021/11/23 05:38:08;;;;;;;14.50;8.35;;;;;;;3.23;100.00;102934.38;5244439;28;20113;-70
2021/11/23 05:40:41;;;;;;;11.25;7.53;;;;;;;3.17;100.00;102921.53;5244074;28;20106;-70
2021/11/23 05:43:13;;;;;;;14.13;7.85;;;;;;;3.26;100.00;102933.44;5245580;28;21031;-70
2021/11/23 05:45:45;;;;;;;12.40;7.73;;;;;;;3.27;100.00;102929.97;5245257;28;20042;-70
2021/11/23 05:48:16;;;;;;;12.52;7.90;;;;;;;3.33;100.00;102935.00;5243799;28;20334;-70
2021/11/23 05:50:47;;;;;;;12.57;7.63;;;;;;;3.35;100.00;102934.09;5244246;28;20119;-70
2021/11/23 05:53:18;;;;;;;13.18;7.40;;;;;;;3.39;100.00;102942.66;5245194;28;20058;-70
2021/11/23 05:55:51;;;;;;;14.55;7.25;;;;;;;3.43;100.00;102941.72;5245556;28;20024;-70
2021/11/23 05:58:23;;;;;;;15.57;7.78;;;;;;;3.49;100.00;102938.16;5242413;28;20118;-70
2021/11/23 06:00:54;;;;;;;13.98;7.50;;;;;;;3.47;100.00;102940.75;5243778;28;20056;-70
2021/11/23 06:03:28;;;;;;;13.10;7.50;;;;;;;3.48;100.00;102928.66;5243988;28;20804;-70
2021/11/23 06:06:00;;;;;;;13.98;7.07;;;;;;;3.47;100.00;102920.03;5244867;28;20025;-70
2021/11/23 06:08:31;;;;;;;14.70;7.72;;;;;;;3.50;100.00;102927.75;5244723;28;20110;-70
2021/11/23 06:11:03;;;;;;;12.88;7.40;;;;;;;3.55;100.00;102935.41;5244617;28;20056;-70
2021/11/23 06:13:35;;;;;;;17.70;7.90;;;;;;;3.51;100.00;102923.41;5244945;28;20437;-70
2021/11/23 06:16:07;;;;;;;15.68;7.45;;;;;;;3.60;100.00;102934.44;5248653;28;20136;-70
2021/11/23 06:18:38;;;;;;;13.00;7.53;;;;;;;3.62;100.00;102927.47;5248985;28;20956;-70
2021/11/23 06:21:09;;;;;;;12.70;7.03;;;;;;;3.68;100.00;102928.22;5248763;28;20036;-71
2021/11/23 06:23:41;;;;;;;10.15;6.88;;;;;;;3.70;100.00;102929.03;5248665;28;20075;-70
2021/11/23 06:26:13;;;;;;;11.10;6.47;;;;;;;3.75;100.00;102935.84;5248849;28;20032;-71
2021/11/23 06:28:45;;;;;;;11.10;7.45;;;;;;;3.76;100.00;102934.94;5247826;28;20033;-70
2021/11/23 06:31:16;;;;;;;14.30;7.03;;;;;;;3.78;100.00;102937.50;5247003;28;20032;-70
2021/11/23 06:33:48;;;;;;;11.32;7.13;;;;;;;3.82;100.00;102939.97;5247737;28;20177;-71
2021/11/23 06:36:19;;;;;;;11.38;7.28;;;;;;;3.85;100.00;102933.88;5247624;28;20105;-70
2021/11/23 06:38:51;;;;;;;11.02;6.78;;;;;;;3.90;100.00;102937.19;5249029;28;20490;-70
2021/11/23 06:41:22;;;;;;;15.70;7.53;;;;;;;3.91;100.00;102946.72;5247747;28;20274;-70
2021/11/23 06:43:55;;;;;;;13.63;7.30;;;;;;;3.94;100.00;102944.03;5248190;28;20063;-70
2021/11/23 06:46:26;;;;;;;11.80;6.80;;;;;;;3.97;100.00;102948.28;5248542;28;20680;-70
2021/11/23 06:48:58;;;;;;;13.18;7.35;;;;;;;3.99;100.00;102951.72;5247972;28;20048;-70
2021/11/23 06:51:30;;;;;;;13.80;6.28;;;;;;;4.02;100.00;102949.06;5247068;28;20038;-70
2021/11/23 06:54:02;;;;;;;14.55;7.35;;;;;;;4.07;100.00;102949.78;5248008;28;20029;-70
2021/11/23 06:56:33;;;;;;;15.55;7.55;;;;;;;4.08;100.00;102952.34;5247600;28;20568;-70
2021/11/23 06:59:05;;;;;;;14.65;7.00;;;;;;;4.06;100.00;102948.94;5245174;28;20025;-70
2021/11/23 07:01:36;;;;;;;19.25;7.13;;;;;;;4.06;100.00;102948.94;5239590;28;20276;-70
2021/11/23 07:04:07;;;;;;;13.02;6.82;;;;;;;4.13;100.00;102949.66;5247873;28;20101;-71
2021/11/23 07:06:39;;;;;;;14.93;6.72;;;;;;;4.12;100.00;102953.97;5245067;28;20063;-70
2021/11/23 07:09:11;;;;;;;14.32;7.25;;;;;;;3.93;100.00;102915.53;5246816;28;20032;-70
2021/11/23 07:11:42;;;;;;;19.67;7.03;;;;;;;4.13;100.00;102957.44;5246747;28;20057;-70
2021/11/23 07:14:14;;;;;;;14.18;7.03;;;;;;;4.15;100.00;102964.28;5248048;28;20035;-70
2021/11/23 07:16:46;;;;;;;15.32;7.82;;;;;;;4.15;100.00;102969.47;5247266;28;20568;-70
2021/11/23 07:19:17;;;;;;;12.27;7.53;;;;;;;4.17;100.00;102963.38;5244476;28;20029;-70
2021/11/23 07:21:49;;;;;;;14.68;8.40;;;;;;;4.22;100.00;102977.09;5245683;28;20024;-70
2021/11/23 07:24:20;;;;;;;11.93;7.45;;;;;;;4.24;100.00;102976.16;5228769;28;20024;-70
2021/11/23 07:26:51;;;;;;;18.83;8.65;;;;;;;4.26;100.00;102982.19;5245579;28;20033;-70
2021/11/23 07:29:23;;;;;;;13.27;8.00;;;;;;;4.26;100.00;102973.53;5241998;28;20048;-70
2021/11/23 07:31:54;;;;;;;24.17;8.75;;;;;;;4.31;100.00;102990.69;5244153;28;20032;-71
2021/11/23 07:34:26;;;;;;;14.55;8.35;;;;;;;4.30;100.00;102985.56;5244025;28;20062;-70
2021/11/23 07:36:57;;;;;;;20.50;9.48;;;;;;;4.32;100.00;102992.44;5244289;28;20055;-70
2021/11/23 07:39:28;;;;;;;13.25;8.85;;;;;;;4.32;100.00;102989.81;5244874;28;20720;-70
2021/11/23 07:42:00;;;;;;;15.23;8.77;;;;;;;4.35;100.00;102992.31;5243536;28;20081;-70
2021/11/23 07:44:31;;;;;;;17.63;10.10;;;;;;;4.39;100.00;102993.97;5243892;28;20036;-69
2021/11/23 07:47:03;;;;;;;12.80;8.73;;;;;;;4.39;100.00;102996.56;5244418;28;20027;-68
2021/11/23 07:49:34;;;;;;;12.60;9.82;;;;;;;4.45;100.00;102998.16;5244835;28;20052;-69
2021/11/23 07:52:05;;;;;;;19.90;10.65;;;;;;;4.46;100.00;102991.22;5247488;28;20105;-69
2021/11/23 07:54:37;;;;;;;14.13;9.75;;;;;;;4.50;100.00;102991.09;5246710;28;20035;-69
2021/11/23 07:57:08;;;;;;;13.10;10.25;;;;;;;4.55;100.00;102991.00;5242651;28;20557;-69
2021/11/23 07:59:40;;;;;;;18.50;10.63;;;;;;;4.59;100.00;102996.06;5242231;28;20435;-69
2021/11/23 08:02:11;;;;;;;18.42;10.55;;;;;;;4.60;100.00;102987.38;5247111;28;20036;-69
2021/11/23 08:04:42;;;;;;;16.63;10.77;;;;;;;4.64;100.00;102993.34;5245055;28;20099;-69
2021/11/23 08:07:14;;;;;;;15.52;10.90;;;;;;;4.67;100.00;102992.44;5244911;28;20033;-69
2021/11/23 08:09:45;;;;;;;18.58;12.02;;;;;;;4.68;100.00;102999.31;5241454;28;20375;-69
2021/11/23 08:12:16;;;;;;;19.83;11.07;;;;;;;4.74;100.00;103000.03;5244564;28;20574;-69
2021/11/23 08:14:48;;;;;;;19.75;11.82;;;;;;;4.76;100.00;103006.03;5245448;28;20611;-69
2021/11/23 08:17:19;;;;;;;20.27;11.85;;;;;;;4.80;100.00;103002.44;5245610;28;20035;-69
2021/11/23 08:19:50;;;;;;;19.08;12.25;;;;;;;4.83;100.00;103011.91;5244571;28;20029;-69
2021/11/23 08:22:22;;;;;;;20.23;12.15;;;;;;;4.85;100.00;103010.16;5245298;28;20035;-69
2021/11/23 08:24:53;;;;;;;22.80;13.27;;;;;;;4.87;100.00;103009.19;5235045;28;20035;-69
2021/11/23 08:27:24;;;;;;;22.05;13.63;;;;;;;4.93;100.00;103009.94;5245084;28;20064;-69
2021/11/23 08:29:55;;;;;;;20.15;13.25;;;;;;;4.93;100.00;103005.59;5232763;28;20044;-69
2021/11/23 08:32:27;;;;;;;25.65;13.98;;;;;;;4.97;100.00;103012.41;5243909;28;20043;-69
2021/11/23 08:34:58;;;;;;;22.38;13.23;;;;;;;5.00;100.00;103009.75;5246413;28;20642;-69
2021/11/23 08:37:31;;;;;;;20.10;13.73;;;;;;;5.04;100.00;103013.97;5245103;28;20040;-69
2021/11/23 08:40:03;;;;;;;20.83;14.30;;;;;;;5.02;100.00;102999.28;5232457;28;20029;-69
2021/11/23 08:42:35;;;;;;;19.92;13.82;;;;;;;5.10;100.00;103018.13;5244382;28;20308;-69
2021/11/23 08:45:08;;;;;;;21.65;14.32;;;;;;;5.11;100.00;103022.41;5245610;28;20025;-69
2021/11/23 08:47:40;;;;;;;19.42;14.05;;;;;;;5.13;100.00;103024.09;5246204;28;20554;-69
2021/11/23 08:50:12;;;;;;;25.42;15.35;;;;;;;5.17;100.00;103031.81;5244650;28;20021;-69
2021/11/23 08:52:44;;;;;;;24.55;15.35;;;;;;;5.19;100.00;103023.09;5244668;28;20064;-69
2021/11/23 08:55:16;;;;;;;24.33;15.13;;;;;;;5.19;100.00;103019.59;5245368;28;20451;-69
2021/11/23 08:57:47;;;;;;;22.80;15.85;;;;;;;5.21;100.00;103021.28;5244817;28;20043;-69
2021/11/23 09:00:20;;;;;;;21.42;14.93;;;;;;;5.25;100.00;103025.50;5245454;28;20029;-69
2021/11/23 09:02:55;;;;;;;22.58;15.30;;;;;;;5.32;100.00;103023.59;5244843;28;20135;-69
2021/11/23 09:05:32;;;;;;;20.45;16.10;;;;;;;5.34;100.00;103020.06;5245838;28;20093;-69
2021/11/23 09:08:05;;;;;;;19.67;16.42;;;;;;;5.41;100.00;103019.88;5245880;28;20032;-69
2021/11/23 09:10:39;;;;;;;25.52;16.17;;;;;;;5.44;100.00;103023.25;5244200;28;20132;-69
2021/11/23 09:13:10;;;;;;;24.52;16.20;;;;;;;5.48;100.00;103016.22;5245286;28;20174;-69
2021/11/23 09:15:42;;;;;;;23.50;16.42;;;;;;;5.54;100.00;103027.28;5244639;28;20066;-69
2021/11/23 09:18:13;;;;;;;23.58;16.67;;;;;;;5.59;100.00;103025.41;5245239;28;20395;-69
2021/11/23 09:20:45;;;;;;;25.20;17.60;;;;;;;5.59;100.00;103029.75;5244823;28;20043;-69
2021/11/23 09:23:16;;;;;;;23.25;16.27;;;;;;;5.66;100.00;103028.69;5245109;28;20059;-69
2021/11/23 09:25:47;;;;;;;23.80;16.40;;;;;;;5.70;100.00;103029.44;5244465;28;20032;-69
2021/11/23 09:28:19;;;;;;;25.17;17.25;;;;;;;5.75;100.00;103030.16;5245292;28;20057;-69
2021/11/23 09:30:50;;;;;;;30.90;17.65;;;;;;;5.76;100.00;103026.69;5243305;28;20663;-69
2021/11/23 09:33:22;;;;;;;25.77;17.27;;;;;;;5.81;100.00;103035.19;5243944;28;20131;-69
2021/11/23 09:35:53;;;;;;;25.30;18.15;;;;;;;5.89;100.00;103032.34;5244745;28;21696;-69
2021/11/23 09:38:25;;;;;;;26.95;18.45;;;;;;;5.94;100.00;103039.13;5245256;28;20039;-69
2021/11/23 09:40:56;;;;;;;24.50;18.65;;;;;;;5.98;100.00;103030.34;5244627;28;20044;-69
2021/11/23 09:43:28;;;;;;;27.17;17.35;;;;;;;6.04;100.00;103026.72;5245841;28;20044;-69
2021/11/23 09:45:59;;;;;;;24.35;17.48;;;;;;;6.05;100.00;103029.25;5245319;28;20075;-69
2021/11/23 09:48:30;;;;;;;25.33;17.83;;;;;;;6.11;100.00;103030.84;5231840;28;20442;-69
2021/11/23 09:51:02;;;;;;;26.58;17.85;;;;;;;6.14;100.00;103022.06;5244943;28;20040;-69
2021/11/23 09:53:34;;;;;;;23.38;17.63;;;;;;;6.25;100.00;103027.78;5244379;28;20049;-69
2021/11/23 09:56:05;;;;;;;27.48;18.15;;;;;;;6.30;100.00;103025.91;5244605;28;20025;-69
2021/11/23 09:58:36;;;;;;;26.40;17.95;;;;;;;6.40;100.00;103029.91;5243287;28;20490;-69
2021/11/23 10:01:11;;;;;;;25.20;18.40;;;;;;;6.50;100.00;103028.69;5244337;28;20036;-69
2021/11/23 10:03:42;;;;;;;27.40;18.55;;;;;;;6.61;100.00;103032.72;5244922;28;20041;-70
2021/11/23 10:06:20;;;;;;;29.65;20.58;;;;;;;6.73;100.00;103027.94;5244180;28;20768;-70
2021/11/23 10:08:54;;;;;;;26.30;18.00;;;;;;;6.78;100.00;103033.00;5247437;28;20591;-70
2021/11/23 10:11:32;;;;;;;30.20;19.08;;;;;;;6.84;100.00;103030.19;5241488;28;20049;-70
2021/11/23 10:14:05;;;;;;;33.45;20.58;;;;;;;6.77;100.00;103026.09;5243318;28;20131;-70
2021/11/23 10:16:42;;;;;;;24.45;18.45;;;;;;;6.90;100.00;103035.19;5243807;28;20486;-70
2021/11/23 10:19:15;;;;;;;29.08;20.55;;;;;;;6.83;100.00;103031.94;5243899;28;20277;-70
2021/11/23 10:21:49;;;;;;;36.33;22.20;;;;;;;6.91;100.00;103020.41;5243606;28;20552;-70
2021/11/23 10:24:22;;;;;;;33.17;22.13;;;;;;;6.91;100.00;103023.03;5244205;28;20129;-70
2021/11/23 10:26:53;;;;;;;40.00;23.17;;;;;;;6.98;100.00;103020.16;5244759;28;20036;-70
2021/11/23 10:29:27;;;;;;;39.40;22.75;;;;;;;7.01;100.00;103016.59;5243997;28;20308;-70
2021/11/23 10:31:58;;;;;;;37.30;23.02;;;;;;;7.04;100.00;103014.69;5241988;28;20465;-70
2021/11/23 10:34:33;;;;;;;36.80;23.75;;;;;;;7.17;100.00;103017.75;5244525;28;20040;-70
2021/11/23 10:37:05;;;;;;;43.75;23.73;;;;;;;7.10;100.00;103005.84;5243851;28;20710;-70
2021/11/23 10:39:37;;;;;;;36.83;22.95;;;;;;;7.22;100.00;103015.81;5244936;28;20037;-70
2021/11/23 10:42:09;;;;;;;34.33;22.65;;;;;;;7.25;100.00;103015.72;5244397;28;20028;-70
2021/11/23 10:44:52;;;;;;;35.08;21.77;;;;;;;7.39;100.00;103012.63;5229477;28;20086;-70
2021/11/23 10:47:24;;;;;;;44.55;22.67;;;;;;;7.27;100.00;103023.47;5244436;28;20037;-69
2021/11/23 10:50:06;;;;;;;41.65;23.95;;;;;;;7.38;100.00;103016.09;5243640;28;20224;-70
2021/11/23 10:52:44;;;;;;;40.30;24.75;;;;;;;7.30;100.00;103013.78;5244183;28;20363;-70
2021/11/23 10:55:28;;;;;;;40.22;24.95;;;;;;;7.47;100.00;102994.06;5243506;28;20275;-70
2021/11/23 10:58:02;;;;;;;38.83;23.98;;;;;;;7.47;100.00;103001.91;5245161;28;20619;-70
2021/11/23 11:00:37;;;;;;;37.45;24.70;;;;;;;7.50;100.00;103002.63;5247271;28;20984;-70
2021/11/23 11:03:10;;;;;;;39.85;23.67;;;;;;;7.51;100.00;102990.44;5245721;28;20036;-70
2021/11/23 11:05:43;;;;;;;33.85;22.23;;;;;;;7.60;100.00;102992.69;5245947;28;20037;-69
2021/11/23 11:08:20;;;;;;;39.15;24.73;;;;;;;7.71;100.00;102997.50;5245313;28;20143;-70
2021/11/23 11:10:53;;;;;;;35.05;22.27;;;;;;;7.70;100.00;102993.19;5244967;28;20041;-70
2021/11/23 11:13:25;;;;;;;34.53;22.55;;;;;;;7.76;100.00;102988.56;5247290;28;20033;-70
2021/11/23 11:15:57;;;;;;;31.95;22.52;;;;;;;7.81;100.00;102980.59;5245012;28;20020;-70
2021/11/23 11:18:28;;;;;;;37.15;23.17;;;;;;;7.82;100.00;102984.03;5247634;28;20191;-70
2021/11/23 11:21:03;;;;;;;40.45;22.77;;;;;;;7.93;100.00;102974.88;5248656;28;20417;-70
2021/11/23 11:23:41;;;;;;;34.20;22.70;;;;;;;8.02;100.00;102973.66;5246771;28;20028;-70
2021/11/23 11:28:53;;;;;;;35.83;21.40;;;;;;;8.24;100.00;102965.81;5247268;28;20078;-70
2021/11/23 11:31:49;;;;;;;34.00;20.92;;;;;;;8.48;100.00;102963.97;5247085;28;20493;-70
2021/11/23 11:34:28;;;;;;;31.08;20.63;;;;;;;8.42;100.00;102962.47;5247334;28;20025;-70
2021/11/23 11:37:16;;;;;;;30.77;20.05;;;;;;;8.58;100.00;102972.28;5246343;28;20043;-70
2021/11/23 11:39:53;;;;;;;26.40;19.48;;;;;;;8.48;100.00;102964.81;5245711;28;20033;-70